Terminal Aerodrome Forecast
Issued by NWS Cleveland, OH

Home | Current Version | Previous Version | Graphics & Text | Print | Product List | Glossary Off
Versions: 1 2 3 4 5 6 7 8 9 10 11 12 13 14

361
FTUS41 KCLE 161735
TAFCAK
TAF
KCAK 161735Z 1618/1718 29015G25KT P6SM VCSH SCT019 OVC025
     FM162300 31011KT P6SM OVC025
     FM170600 32005KT P6SM BKN015 OVC025
     FM171600 19008KT P6SM SCT025 BKN250=

USA.gov is the U.S. government's official web portal to all federal, state and local government web resources and services.